sensor_id;sensor_type;location;lat;lon;timestamp;pressure;altitude;pressure_sealevel;temperature;humidity
12973;BME280;6551;51.056;9.466;2022-12-24T00:00:32;96564.59;;;12.47;82.30
12973;BME280;6551;51.056;9.466;2022-12-24T00:02:58;96570.09;;;12.30;82.90
12973;BME280;6551;51.056;9.466;2022-12-24T00:05:24;96558.28;;;12.21;83.99
12973;BME280;6551;51.056;9.466;2022-12-24T00:07:50;96571.06;;;12.19;84.43
12973;BME280;6551;51.056;9.466;2022-12-24T00:10:15;96570.03;;;12.20;84.66
12973;BME280;6551;51.056;9.466;2022-12-24T00:12:41;96582.72;;;12.40;83.90
12973;BME280;6551;51.056;9.466;2022-12-24T00:15:08;96560.22;;;12.30;83.73
12973;BME280;6551;51.056;9.466;2022-12-24T00:17:34;96557.47;;;12.20;83.95
12973;BME280;6551;51.056;9.466;2022-12-24T00:19:59;96566.66;;;12.35;83.26
12973;BME280;6551;51.056;9.466;2022-12-24T00:22:25;96561.91;;;12.05;83.66
12973;BME280;6551;51.056;9.466;2022-12-24T00:24:51;96571.78;;;12.04;84.50
12973;BME280;6551;51.056;9.466;2022-12-24T00:27:16;96585.63;;;12.01;84.33
12973;BME280;6551;51.056;9.466;2022-12-24T00:29:42;96579.66;;;11.94;84.67
12973;BME280;6551;51.056;9.466;2022-12-24T00:32:08;96576.47;;;12.24;83.86
12973;BME280;6551;51.056;9.466;2022-12-24T00:34:39;96581.81;;;12.24;83.22
12973;BME280;6551;51.056;9.466;2022-12-24T00:37:05;96584.84;;;12.38;82.63
12973;BME280;6551;51.056;9.466;2022-12-24T00:39:31;96583.38;;;12.20;82.54
12973;BME280;6551;51.056;9.466;2022-12-24T00:41:57;96586.22;;;12.45;81.82
12973;BME280;6551;51.056;9.466;2022-12-24T00:44:23;96581.41;;;12.42;81.14
12973;BME280;6551;51.056;9.466;2022-12-24T00:46:49;96589.09;;;12.39;81.24
12973;BME280;6551;51.056;9.466;2022-12-24T00:49:15;96593.94;;;12.05;82.07
12973;BME280;6551;51.056;9.466;2022-12-24T00:51:41;96602.44;;;12.02;82.23
12973;BME280;6551;51.056;9.466;2022-12-24T00:54:06;96598.50;;;12.09;82.15
12973;BME280;6551;51.056;9.466;2022-12-24T00:56:33;96612.72;;;12.20;81.92
12973;BME280;6551;51.056;9.466;2022-12-24T00:58:59;96610.19;;;12.03;82.06
12973;BME280;6551;51.056;9.466;2022-12-24T01:01:26;96608.88;;;12.06;81.61
12973;BME280;6551;51.056;9.466;2022-12-24T01:03:52;96612.31;;;12.01;81.88
12973;BME280;6551;51.056;9.466;2022-12-24T01:06:38;96620.59;;;12.05;81.53
12973;BME280;6551;51.056;9.466;2022-12-24T01:09:04;96629.41;;;12.05;81.21
12973;BME280;6551;51.056;9.466;2022-12-24T01:11:30;96621.34;;;12.00;81.56
12973;BME280;6551;51.056;9.466;2022-12-24T01:13:56;96617.72;;;12.11;80.69
12973;BME280;6551;51.056;9.466;2022-12-24T01:16:22;96630.22;;;12.06;80.22
12973;BME280;6551;51.056;9.466;2022-12-24T01:18:47;96620.34;;;12.06;80.36
12973;BME280;6551;51.056;9.466;2022-12-24T01:21:14;96646.31;;;11.89;80.92
12973;BME280;6551;51.056;9.466;2022-12-24T01:23:40;96631.44;;;11.93;80.72
12973;BME280;6551;51.056;9.466;2022-12-24T01:26:06;96652.19;;;11.91;80.67
12973;BME280;6551;51.056;9.466;2022-12-24T01:28:32;96653.59;;;11.94;80.65
12973;BME280;6551;51.056;9.466;2022-12-24T01:30:58;96658.00;;;11.83;80.72
12973;BME280;6551;51.056;9.466;2022-12-24T01:33:28;96659.31;;;12.07;80.16
12973;BME280;6551;51.056;9.466;2022-12-24T01:35:54;96655.91;;;12.17;79.58
12973;BME280;6551;51.056;9.466;2022-12-24T01:38:19;96656.94;;;12.11;79.59
12973;BME280;6551;51.056;9.466;2022-12-24T01:40:45;96658.47;;;12.02;79.40
12973;BME280;6551;51.056;9.466;2022-12-24T01:43:31;96658.97;;;11.99;78.91
12973;BME280;6551;51.056;9.466;2022-12-24T01:46:25;96669.28;;;11.90;78.61
12973;BME280;6551;51.056;9.466;2022-12-24T01:48:57;96664.06;;;12.05;78.10
12973;BME280;6551;51.056;9.466;2022-12-24T01:51:33;96669.72;;;12.09;77.65
12973;BME280;6551;51.056;9.466;2022-12-24T01:56:47;96695.75;;;11.97;79.97
12973;BME280;6551;51.056;9.466;2022-12-24T01:59:16;96678.69;;;11.98;79.75
12973;BME280;6551;51.056;9.466;2022-12-24T02:01:45;96683.06;;;11.82;79.99
12973;BME280;6551;51.056;9.466;2022-12-24T02:06:44;96692.00;;;11.71;78.70
12973;BME280;6551;51.056;9.466;2022-12-24T02:09:10;96693.59;;;11.94;78.06
12973;BME280;6551;51.056;9.466;2022-12-24T02:11:38;96704.41;;;11.82;78.00
12973;BME280;6551;51.056;9.466;2022-12-24T02:14:05;96711.81;;;11.80;78.08
12973;BME280;6551;51.056;9.466;2022-12-24T02:19:39;96712.94;;;11.84;78.19
12973;BME280;6551;51.056;9.466;2022-12-24T02:31:07;96743.88;;;12.07;76.95
12973;BME280;6551;51.056;9.466;2022-12-24T02:34:03;96746.38;;;11.92;76.56
12973;BME280;6551;51.056;9.466;2022-12-24T02:36:39;96756.31;;;11.96;76.50
12973;BME280;6551;51.056;9.466;2022-12-24T02:39:23;96755.72;;;11.94;76.41
12973;BME280;6551;51.056;9.466;2022-12-24T02:41:53;96756.50;;;11.90;76.45
12973;BME280;6551;51.056;9.466;2022-12-24T02:45:08;96774.66;;;11.93;76.32
12973;BME280;6551;51.056;9.466;2022-12-24T02:47:33;96765.53;;;11.89;76.66
12973;BME280;6551;51.056;9.466;2022-12-24T02:50:01;96769.09;;;11.56;77.19
12973;BME280;6551;51.056;9.466;2022-12-24T02:52:42;96776.28;;;11.55;76.97
12973;BME280;6551;51.056;9.466;2022-12-24T03:00:17;96798.69;;;11.54;78.05
12973;BME280;6551;51.056;9.466;2022-12-24T03:05:54;96807.13;;;11.68;77.21
12973;BME280;6551;51.056;9.466;2022-12-24T03:08:35;96802.25;;;11.43;77.15
12973;BME280;6551;51.056;9.466;2022-12-24T03:11:12;96801.16;;;11.61;76.67
12973;BME280;6551;51.056;9.466;2022-12-24T03:13:41;96815.22;;;11.56;76.39
12973;BME280;6551;51.056;9.466;2022-12-24T03:16:11;96812.00;;;11.54;76.27
12973;BME280;6551;51.056;9.466;2022-12-24T03:18:41;96812.00;;;11.54;76.27
12973;BME280;6551;51.056;9.466;2022-12-24T03:21:32;96816.66;;;11.64;76.29
12973;BME280;6551;51.056;9.466;2022-12-24T03:23:59;96821.38;;;11.57;76.49
12973;BME280;6551;51.056;9.466;2022-12-24T03:26:26;96814.09;;;11.52;76.38
12973;BME280;6551;51.056;9.466;2022-12-24T03:28:53;96833.84;;;11.51;76.07
12973;BME280;6551;51.056;9.466;2022-12-24T03:31:20;96829.69;;;11.60;76.50
12973;BME280;6551;51.056;9.466;2022-12-24T03:33:47;96844.00;;;11.54;77.07
12973;BME280;6551;51.056;9.466;2022-12-24T03:36:13;96831.75;;;11.37;77.45
12973;BME280;6551;51.056;9.466;2022-12-24T03:38:39;96851.28;;;11.42;78.75
12973;BME280;6551;51.056;9.466;2022-12-24T03:41:06;96854.34;;;11.34;79.16
12973;BME280;6551;51.056;9.466;2022-12-24T03:43:32;96853.72;;;11.27;79.57
12973;BME280;6551;51.056;9.466;2022-12-24T03:46:02;96866.06;;;11.33;79.87
12973;BME280;6551;51.056;9.466;2022-12-24T03:48:28;96879.84;;;11.13;80.98
12973;BME280;6551;51.056;9.466;2022-12-24T03:50:54;96885.78;;;11.15;81.72
12973;BME280;6551;51.056;9.466;2022-12-24T03:53:19;96898.59;;;11.02;82.94
12973;BME280;6551;51.056;9.466;2022-12-24T03:55:46;96896.06;;;10.95;84.03
12973;BME280;6551;51.056;9.466;2022-12-24T03:58:12;96904.94;;;10.84;85.45
12973;BME280;6551;51.056;9.466;2022-12-24T04:00:37;96900.59;;;10.67;86.69
12973;BME280;6551;51.056;9.466;2022-12-24T04:03:03;96900.56;;;10.78;87.37
12973;BME280;6551;51.056;9.466;2022-12-24T04:05:29;96902.69;;;10.65;88.02
12973;BME280;6551;51.056;9.466;2022-12-24T04:07:55;96915.16;;;10.76;87.87
12973;BME280;6551;51.056;9.466;2022-12-24T04:10:20;96903.66;;;10.47;88.36
12973;BME280;6551;51.056;9.466;2022-12-24T04:12:46;96914.66;;;10.50;88.56
12973;BME280;6551;51.056;9.466;2022-12-24T04:15:11;96924.28;;;10.51;88.80
12973;BME280;6551;51.056;9.466;2022-12-24T04:17:37;96920.84;;;10.28;89.57
12973;BME280;6551;51.056;9.466;2022-12-24T04:20:03;96927.25;;;10.15;89.73
12973;BME280;6551;51.056;9.466;2022-12-24T04:22:29;96933.59;;;10.26;89.94
12973;BME280;6551;51.056;9.466;2022-12-24T04:24:55;96938.69;;;10.16;90.47
12973;BME280;6551;51.056;9.466;2022-12-24T04:27:20;96942.38;;;10.15;89.82
12973;BME280;6551;51.056;9.466;2022-12-24T04:29:47;96938.31;;;10.12;89.84
12973;BME280;6551;51.056;9.466;2022-12-24T04:32:13;96943.78;;;10.17;89.67
12973;BME280;6551;51.056;9.466;2022-12-24T04:34:40;96950.25;;;10.10;89.92
12973;BME280;6551;51.056;9.466;2022-12-24T04:37:06;96957.66;;;10.08;90.58
12973;BME280;6551;51.056;9.466;2022-12-24T04:39:31;96949.41;;;10.09;89.60
12973;BME280;6551;51.056;9.466;2022-12-24T04:41:57;96950.25;;;10.10;89.46
12973;BME280;6551;51.056;9.466;2022-12-24T04:44:22;96948.06;;;10.18;89.10
12973;BME280;6551;51.056;9.466;2022-12-24T04:46:48;96943.75;;;10.29;88.49
12973;BME280;6551;51.056;9.466;2022-12-24T04:49:15;96941.69;;;10.19;88.52
12973;BME280;6551;51.056;9.466;2022-12-24T04:51:41;96951.94;;;10.39;88.21
12973;BME280;6551;51.056;9.466;2022-12-24T04:54:06;96952.53;;;10.41;88.16
12973;BME280;6551;51.056;9.466;2022-12-24T04:56:32;96950.53;;;10.60;87.79
12973;BME280;6551;51.056;9.466;2022-12-24T04:58:59;96950.00;;;10.23;88.26
12973;BME280;6551;51.056;9.466;2022-12-24T05:01:29;96949.19;;;10.22;88.45
12973;BME280;6551;51.056;9.466;2022-12-24T05:03:55;96946.16;;;10.42;88.01
12973;BME280;6551;51.056;9.466;2022-12-24T05:06:25;96953.91;;;10.43;87.55
12973;BME280;6551;51.056;9.466;2022-12-24T05:08:55;96944.69;;;10.34;87.17
12973;BME280;6551;51.056;9.466;2022-12-24T05:11:22;96937.47;;;10.46;86.46
12973;BME280;6551;51.056;9.466;2022-12-24T05:13:47;96941.16;;;10.57;85.57
12973;BME280;6551;51.056;9.466;2022-12-24T05:16:16;96943.91;;;10.62;84.79
12973;BME280;6551;51.056;9.466;2022-12-24T05:18:42;96954.38;;;10.80;84.02
12973;BME280;6551;51.056;9.466;2022-12-24T05:21:10;96965.09;;;10.69;83.93
12973;BME280;6551;51.056;9.466;2022-12-24T05:23:37;96960.31;;;10.71;83.73
12973;BME280;6551;51.056;9.466;2022-12-24T05:26:36;96954.38;;;10.80;82.95
12973;BME280;6551;51.056;9.466;2022-12-24T05:29:07;96951.75;;;10.97;82.35
12973;BME280;6551;51.056;9.466;2022-12-24T05:31:33;96949.16;;;10.85;82.16
12973;BME280;6551;51.056;9.466;2022-12-24T05:34:00;96954.81;;;10.89;81.38
12973;BME280;6551;51.056;9.466;2022-12-24T05:36:27;96953.22;;;10.88;81.30
12973;BME280;6551;51.056;9.466;2022-12-24T05:38:53;96971.50;;;10.84;81.45
12973;BME280;6551;51.056;9.466;2022-12-24T05:41:19;96972.50;;;10.95;81.39
12973;BME280;6551;51.056;9.466;2022-12-24T05:43:45;96971.69;;;10.94;81.90
12973;BME280;6551;51.056;9.466;2022-12-24T05:46:14;96980.09;;;11.03;81.93
12973;BME280;6551;51.056;9.466;2022-12-24T05:48:41;96981.06;;;10.97;82.58
12973;BME280;6551;51.056;9.466;2022-12-24T05:51:10;96984.78;;;10.96;83.43
12973;BME280;6551;51.056;9.466;2022-12-24T05:53:36;96984.25;;;10.82;84.18
12973;BME280;6551;51.056;9.466;2022-12-24T05:56:12;96983.31;;;10.88;85.37
12973;BME280;6551;51.056;9.466;2022-12-24T05:58:40;96985.41;;;10.75;85.81
12973;BME280;6551;51.056;9.466;2022-12-24T06:01:07;96980.72;;;10.65;86.70
12973;BME280;6551;51.056;9.466;2022-12-24T06:03:33;96992.06;;;10.61;87.64
12973;BME280;6551;51.056;9.466;2022-12-24T06:06:02;96994.97;;;10.59;88.19
12973;BME280;6551;51.056;9.466;2022-12-24T06:08:29;96992.28;;;10.59;88.54
12973;BME280;6551;51.056;9.466;2022-12-24T06:10:58;96985.63;;;10.45;89.83
12973;BME280;6551;51.056;9.466;2022-12-24T06:13:24;96995.16;;;10.69;89.16
12973;BME280;6551;51.056;9.466;2022-12-24T06:15:54;97012.63;;;10.77;89.31
12973;BME280;6551;51.056;9.466;2022-12-24T06:18:21;97012.19;;;10.68;89.78
12973;BME280;6551;51.056;9.466;2022-12-24T06:20:53;97014.38;;;10.71;89.89
12973;BME280;6551;51.056;9.466;2022-12-24T06:23:20;97015.50;;;10.35;91.86
12973;BME280;6551;51.056;9.466;2022-12-24T06:25:46;97005.06;;;10.45;92.08
12973;BME280;6551;51.056;9.466;2022-12-24T06:28:12;97004.78;;;10.58;91.78
12973;BME280;6551;51.056;9.466;2022-12-24T06:30:38;96995.31;;;10.51;91.44
12973;BME280;6551;51.056;9.466;2022-12-24T06:33:03;97000.53;;;10.46;91.62
12973;BME280;6551;51.056;9.466;2022-12-24T06:35:33;96995.31;;;10.51;91.96
12973;BME280;6551;51.056;9.466;2022-12-24T06:37:59;97006.69;;;10.35;92.49
12973;BME280;6551;51.056;9.466;2022-12-24T06:40:26;97007.72;;;10.22;93.31
12973;BME280;6551;51.056;9.466;2022-12-24T06:42:51;97010.84;;;10.19;93.54
12973;BME280;6551;51.056;9.466;2022-12-24T06:45:17;97013.97;;;10.28;93.47
12973;BME280;6551;51.056;9.466;2022-12-24T06:47:42;97016.63;;;10.28;93.38
12973;BME280;6551;51.056;9.466;2022-12-24T06:50:08;97027.06;;;10.18;93.50
12973;BME280;6551;51.056;9.466;2022-12-24T06:52:34;97013.75;;;10.18;93.06
12973;BME280;6551;51.056;9.466;2022-12-24T06:55:01;97014.91;;;10.33;92.85
12973;BME280;6551;51.056;9.466;2022-12-24T06:57:27;97031.00;;;10.38;92.55
12973;BME280;6551;51.056;9.466;2022-12-24T06:59:52;97034.78;;;10.42;92.11
12973;BME280;6551;51.056;9.466;2022-12-24T07:02:18;97029.38;;;10.26;92.04
12973;BME280;6551;51.056;9.466;2022-12-24T07:04:43;97040.56;;;10.39;91.74
12973;BME280;6551;51.056;9.466;2022-12-24T07:07:09;97045.44;;;10.42;91.31
12973;BME280;6551;51.056;9.466;2022-12-24T07:09:35;97050.53;;;10.44;91.25
12973;BME280;6551;51.056;9.466;2022-12-24T07:12:01;97045.91;;;10.51;90.57
12973;BME280;6551;51.056;9.466;2022-12-24T07:14:26;97047.63;;;10.57;90.23
12973;BME280;6551;51.056;9.466;2022-12-24T07:16:52;97046.59;;;10.46;90.34
12973;BME280;6551;51.056;9.466;2022-12-24T07:19:18;97051.78;;;10.53;89.88
12973;BME280;6551;51.056;9.466;2022-12-24T07:21:43;97058.03;;;10.70;89.48
12973;BME280;6551;51.056;9.466;2022-12-24T07:24:09;97059.31;;;10.68;89.20
12973;BME280;6551;51.056;9.466;2022-12-24T07:26:35;97063.22;;;10.77;88.67
12973;BME280;6551;51.056;9.466;2022-12-24T07:29:00;97071.81;;;10.67;88.48
12973;BME280;6551;51.056;9.466;2022-12-24T07:31:26;97072.63;;;10.56;88.62
12973;BME280;6551;51.056;9.466;2022-12-24T07:33:52;97069.16;;;10.55;88.31
12973;BME280;6551;51.056;9.466;2022-12-24T07:36:20;97072.88;;;10.43;88.76
12973;BME280;6551;51.056;9.466;2022-12-24T07:38:46;97078.75;;;10.56;88.39
12973;BME280;6551;51.056;9.466;2022-12-24T07:41:13;97083.06;;;10.57;88.01
12973;BME280;6551;51.056;9.466;2022-12-24T07:43:39;97080.38;;;10.57;88.20
12973;BME280;6551;51.056;9.466;2022-12-24T07:46:05;97085.56;;;10.64;87.79
12973;BME280;6551;51.056;9.466;2022-12-24T07:48:31;97086.75;;;10.68;87.75
12973;BME280;6551;51.056;9.466;2022-12-24T07:50:57;97086.28;;;10.60;87.33
12973;BME280;6551;51.056;9.466;2022-12-24T07:53:27;97088.84;;;10.54;88.11
12973;BME280;6551;51.056;9.466;2022-12-24T07:55:53;97093.56;;;10.64;88.13
12973;BME280;6551;51.056;9.466;2022-12-24T07:58:20;97098.31;;;10.62;88.09
12973;BME280;6551;51.056;9.466;2022-12-24T08:00:46;97104.22;;;10.64;87.92
12973;BME280;6551;51.056;9.466;2022-12-24T08:03:17;97096.47;;;10.63;87.97
12973;BME280;6551;51.056;9.466;2022-12-24T08:05:44;97109.53;;;10.64;88.00
12973;BME280;6551;51.056;9.466;2022-12-24T08:08:10;97115.22;;;10.56;88.15
12973;BME280;6551;51.056;9.466;2022-12-24T08:10:39;97103.38;;;10.75;87.56
12973;BME280;6551;51.056;9.466;2022-12-24T08:13:05;97108.81;;;10.92;87.00
12973;BME280;6551;51.056;9.466;2022-12-24T08:15:31;97107.88;;;10.98;86.52
12973;BME280;6551;51.056;9.466;2022-12-24T08:17:57;97106.84;;;10.87;86.76
12973;BME280;6551;51.056;9.466;2022-12-24T08:20:22;97093.53;;;10.99;86.56
12973;BME280;6551;51.056;9.466;2022-12-24T08:22:48;97110.06;;;11.12;85.87
12973;BME280;6551;51.056;9.466;2022-12-24T08:25:16;97122.94;;;11.44;84.84
12973;BME280;6551;51.056;9.466;2022-12-24T08:27:42;97118.19;;;11.46;83.78
12973;BME280;6551;51.056;9.466;2022-12-24T08:30:08;97130.50;;;11.75;83.50
12973;BME280;6551;51.056;9.466;2022-12-24T08:32:34;97120.22;;;11.55;82.76
12973;BME280;6551;51.056;9.466;2022-12-24T08:35:00;97122.09;;;11.55;82.19
12973;BME280;6551;51.056;9.466;2022-12-24T08:37:26;97125.56;;;11.55;82.93
12973;BME280;6551;51.056;9.466;2022-12-24T08:39:51;97110.03;;;11.52;82.80
12973;BME280;6551;51.056;9.466;2022-12-24T08:42:17;97125.91;;;11.59;82.82
12973;BME280;6551;51.056;9.466;2022-12-24T08:44:43;97131.63;;;11.79;82.65
12973;BME280;6551;51.056;9.466;2022-12-24T08:47:10;97118.88;;;11.41;83.70
12973;BME280;6551;51.056;9.466;2022-12-24T08:49:36;97125.84;;;11.42;84.44
12973;BME280;6551;51.056;9.466;2022-12-24T08:52:02;97135.50;;;11.32;85.16
12973;BME280;6551;51.056;9.466;2022-12-24T08:54:28;97134.50;;;11.09;85.57
12973;BME280;6551;51.056;9.466;2022-12-24T08:56:53;97163.72;;;10.70;86.50
12973;BME280;6551;51.056;9.466;2022-12-24T08:59:19;97169.38;;;10.73;87.22
12973;BME280;6551;51.056;9.466;2022-12-24T09:01:45;97172.38;;;10.42;88.81
12973;BME280;6551;51.056;9.466;2022-12-24T09:04:11;97174.91;;;10.37;89.70
12973;BME280;6551;51.056;9.466;2022-12-24T09:06:37;97168.25;;;10.57;89.89
12973;BME280;6551;51.056;9.466;2022-12-24T09:09:06;97172.53;;;10.93;88.34
12973;BME280;6551;51.056;9.466;2022-12-24T09:11:33;97183.38;;;11.27;86.34
12973;BME280;6551;51.056;9.466;2022-12-24T09:14:00;97187.78;;;11.21;85.71
12973;BME280;6551;51.056;9.466;2022-12-24T09:16:26;97179.34;;;10.89;86.13
12973;BME280;6551;51.056;9.466;2022-12-24T09:18:53;97188.50;;;10.93;86.57
12973;BME280;6551;51.056;9.466;2022-12-24T09:21:20;97199.97;;;10.94;86.56
12973;BME280;6551;51.056;9.466;2022-12-24T09:23:47;97211.19;;;10.73;87.50
12973;BME280;6551;51.056;9.466;2022-12-24T09:26:18;97206.78;;;10.78;87.99
12973;BME280;6551;51.056;9.466;2022-12-24T09:28:44;97211.53;;;10.76;87.66
12973;BME280;6551;51.056;9.466;2022-12-24T09:31:11;97215.50;;;10.85;87.73
12973;BME280;6551;51.056;9.466;2022-12-24T09:33:39;97204.59;;;10.98;87.39
12973;BME280;6551;51.056;9.466;2022-12-24T09:36:06;97211.97;;;11.08;87.11
12973;BME280;6551;51.056;9.466;2022-12-24T09:38:36;97218.59;;;11.05;87.22
12973;BME280;6551;51.056;9.466;2022-12-24T09:44:14;97235.97;;;11.31;86.41
12973;BME280;6551;51.056;9.466;2022-12-24T09:46:45;97234.47;;;11.35;86.20
12973;BME280;6551;51.056;9.466;2022-12-24T09:49:21;97234.09;;;11.43;86.13
12973;BME280;6551;51.056;9.466;2022-12-24T09:51:57;97234.00;;;11.27;86.33
12973;BME280;6551;51.056;9.466;2022-12-24T09:54:32;97242.81;;;11.04;87.10
12973;BME280;6551;51.056;9.466;2022-12-24T09:57:18;97242.69;;;11.22;86.89
12973;BME280;6551;51.056;9.466;2022-12-24T09:59:50;97242.47;;;11.35;86.60
12973;BME280;6551;51.056;9.466;2022-12-24T10:02:22;97252.50;;;11.45;86.50
12973;BME280;6551;51.056;9.466;2022-12-24T10:04:48;97247.66;;;11.42;86.73
12973;BME280;6551;51.056;9.466;2022-12-24T10:10:37;97259.13;;;11.42;86.93
12973;BME280;6551;51.056;9.466;2022-12-24T10:16:30;97255.44;;;11.32;87.21
12973;BME280;6551;51.056;9.466;2022-12-24T10:19:09;97255.53;;;11.37;87.24
12973;BME280;6551;51.056;9.466;2022-12-24T10:25:00;97251.81;;;11.49;86.88
12973;BME280;6551;51.056;9.466;2022-12-24T10:27:35;97251.69;;;11.44;87.04
12973;BME280;6551;51.056;9.466;2022-12-24T10:30:19;97260.03;;;11.48;87.14
12973;BME280;6551;51.056;9.466;2022-12-24T10:32:51;97268.16;;;11.41;87.64
12973;BME280;6551;51.056;9.466;2022-12-24T10:35:28;97261.91;;;11.47;87.42
12973;BME280;6551;51.056;9.466;2022-12-24T10:37:57;97268.75;;;11.55;87.28
12973;BME280;6551;51.056;9.466;2022-12-24T10:40:44;97273.00;;;11.67;86.89
12973;BME280;6551;51.056;9.466;2022-12-24T10:43:18;97278.34;;;11.44;87.13
12973;BME280;6551;51.056;9.466;2022-12-24T10:45:48;97274.50;;;11.63;86.58
12973;BME280;6551;51.056;9.466;2022-12-24T10:48:37;97289.00;;;11.67;86.33
12973;BME280;6551;51.056;9.466;2022-12-24T10:51:12;97269.06;;;11.47;86.67
12973;BME280;6551;51.056;9.466;2022-12-24T10:54:11;97279.72;;;11.58;86.66
12973;BME280;6551;51.056;9.466;2022-12-24T10:56:40;97288.56;;;11.47;86.36
12973;BME280;6551;51.056;9.466;2022-12-24T10:59:22;97286.00;;;11.52;87.24
12973;BME280;6551;51.056;9.466;2022-12-24T11:01:50;97289.25;;;11.54;86.94
12973;BME280;6551;51.056;9.466;2022-12-24T11:04:22;97295.50;;;11.60;86.85
12973;BME280;6551;51.056;9.466;2022-12-24T11:09:33;97289.84;;;11.45;87.56
12973;BME280;6551;51.056;9.466;2022-12-24T11:12:02;97296.34;;;11.60;87.60
12973;BME280;6551;51.056;9.466;2022-12-24T11:14:33;97286.34;;;11.79;87.07
12973;BME280;6551;51.056;9.466;2022-12-24T11:16:59;97282.75;;;11.85;86.47
12973;BME280;6551;51.056;9.466;2022-12-24T11:19:32;97282.22;;;12.00;86.61
12973;BME280;6551;51.056;9.466;2022-12-24T11:22:03;97288.47;;;12.05;85.40
12973;BME280;6551;51.056;9.466;2022-12-24T11:24:35;97275.53;;;12.25;85.01
12973;BME280;6551;51.056;9.466;2022-12-24T11:27:38;97277.03;;;12.50;84.06
12973;BME280;6551;51.056;9.466;2022-12-24T11:32:41;97274.16;;;12.68;82.99
12973;BME280;6551;51.056;9.466;2022-12-24T11:35:18;97252.44;;;12.48;82.51
12973;BME280;6551;51.056;9.466;2022-12-24T11:37:48;97254.94;;;12.38;82.64
12973;BME280;6551;51.056;9.466;2022-12-24T11:40:22;97256.88;;;12.14;83.60
12973;BME280;6551;51.056;9.466;2022-12-24T11:42:49;97257.63;;;11.98;84.32
12973;BME280;6551;51.056;9.466;2022-12-24T11:45:30;97255.91;;;11.92;84.68
12973;BME280;6551;51.056;9.466;2022-12-24T11:47:58;97255.81;;;11.87;85.05
12973;BME280;6551;51.056;9.466;2022-12-24T11:50:31;97263.06;;;11.63;85.85
12973;BME280;6551;51.056;9.466;2022-12-24T11:58:24;97259.56;;;11.74;86.01
12973;BME280;6551;51.056;9.466;2022-12-24T12:03:40;97269.09;;;11.70;86.61
12973;BME280;6551;51.056;9.466;2022-12-24T12:06:37;97275.00;;;11.49;87.04
12973;BME280;6551;51.056;9.466;2022-12-24T12:12:04;97280.91;;;11.62;87.65
12973;BME280;6551;51.056;9.466;2022-12-24T12:14:47;97286.34;;;11.44;88.65
12973;BME280;6551;51.056;9.466;2022-12-24T12:17:47;97276.97;;;11.53;88.58
12973;BME280;6551;51.056;9.466;2022-12-24T12:20:22;97289.63;;;11.46;88.93
12973;BME280;6551;51.056;9.466;2022-12-24T12:28:43;97298.06;;;11.32;89.46
12973;BME280;6551;51.056;9.466;2022-12-24T12:31:47;97311.06;;;11.51;89.33
12973;BME280;6551;51.056;9.466;2022-12-24T12:34:28;97313.38;;;11.48;89.04
12973;BME280;6551;51.056;9.466;2022-12-24T12:37:04;97315.56;;;11.62;88.96
12973;BME280;6551;51.056;9.466;2022-12-24T12:39:36;97317.06;;;11.82;88.09
12973;BME280;6551;51.056;9.466;2022-12-24T12:42:31;97327.38;;;11.90;87.68
12973;BME280;6551;51.056;9.466;2022-12-24T12:48:30;97321.78;;;12.03;86.61
12973;BME280;6551;51.056;9.466;2022-12-24T12:51:14;97317.34;;;12.08;86.24
12973;BME280;6551;51.056;9.466;2022-12-24T12:56:59;97318.06;;;12.04;85.43
12973;BME280;6551;51.056;9.466;2022-12-24T13:00:11;97327.00;;;12.09;85.08
12973;BME280;6551;51.056;9.466;2022-12-24T13:03:32;97314.13;;;12.06;84.78
12973;BME280;6551;51.056;9.466;2022-12-24T13:20:28;97337.16;;;12.52;83.36
12973;BME280;6551;51.056;9.466;2022-12-24T13:25:30;97350.84;;;12.56;81.69
12973;BME280;6551;51.056;9.466;2022-12-24T13:30:42;97352.47;;;12.57;81.79
12973;BME280;6551;51.056;9.466;2022-12-24T13:36:04;97353.34;;;12.46;83.08
12973;BME280;6551;51.056;9.466;2022-12-24T13:38:38;97358.84;;;12.27;83.80
12973;BME280;6551;51.056;9.466;2022-12-24T13:44:17;97367.72;;;12.45;83.95
12973;BME280;6551;51.056;9.466;2022-12-24T13:49:41;97372.34;;;12.21;84.75
12973;BME280;6551;51.056;9.466;2022-12-24T13:58:01;97388.47;;;12.03;85.80
12973;BME280;6551;51.056;9.466;2022-12-24T14:00:52;97396.25;;;12.16;86.35
12973;BME280;6551;51.056;9.466;2022-12-24T14:03:41;97383.59;;;12.11;86.44
12973;BME280;6551;51.056;9.466;2022-12-24T14:06:34;97382.00;;;11.99;86.53
12973;BME280;6551;51.056;9.466;2022-12-24T14:09:13;97380.38;;;11.98;86.61
12973;BME280;6551;51.056;9.466;2022-12-24T14:14:39;97395.91;;;12.12;85.59
12973;BME280;6551;51.056;9.466;2022-12-24T14:17:26;97386.28;;;12.00;85.97
12973;BME280;6551;51.056;9.466;2022-12-24T14:19:58;97389.31;;;11.92;85.60
12973;BME280;6551;51.056;9.466;2022-12-24T14:22:32;97399.16;;;11.91;86.35
12973;BME280;6551;51.056;9.466;2022-12-24T14:25:03;97400.81;;;11.81;85.71
12973;BME280;6551;51.056;9.466;2022-12-24T14:27:48;97393.72;;;11.74;85.89
12973;BME280;6551;51.056;9.466;2022-12-24T14:30:25;97397.56;;;11.79;85.53
12973;BME280;6551;51.056;9.466;2022-12-24T14:32:53;97397.22;;;11.75;85.83
12973;BME280;6551;51.056;9.466;2022-12-24T14:38:14;97391.41;;;11.55;87.00
12973;BME280;6551;51.056;9.466;2022-12-24T14:41:19;97400.78;;;11.57;86.95
12973;BME280;6551;51.056;9.466;2022-12-24T14:44:01;97397.28;;;11.45;87.53
12973;BME280;6551;51.056;9.466;2022-12-24T14:46:53;97410.84;;;11.32;87.73
12973;BME280;6551;51.056;9.466;2022-12-24T14:52:25;97418.13;;;11.37;87.28
12973;BME280;6551;51.056;9.466;2022-12-24T14:54:58;97420.09;;;11.30;87.57
12973;BME280;6551;51.056;9.466;2022-12-24T14:57:25;97425.53;;;11.23;87.78
12973;BME280;6551;51.056;9.466;2022-12-24T14:59:52;97427.91;;;11.01;88.39
12973;BME280;6551;51.056;9.466;2022-12-24T15:02:45;97428.41;;;11.10;88.29
12973;BME280;6551;51.056;9.466;2022-12-24T15:05:26;97439.41;;;11.13;88.55
12973;BME280;6551;51.056;9.466;2022-12-24T15:07:57;97441.03;;;11.14;88.14
12973;BME280;6551;51.056;9.466;2022-12-24T15:10:30;97451.78;;;11.08;88.08
12973;BME280;6551;51.056;9.466;2022-12-24T15:13:08;97455.63;;;11.12;88.11
12973;BME280;6551;51.056;9.466;2022-12-24T15:15:42;97454.34;;;11.14;87.98
12973;BME280;6551;51.056;9.466;2022-12-24T15:18:14;97460.47;;;11.03;88.01